createdAt,value
2019-02-24T00:02:26.038Z,18.8
2019-02-24T00:05:31.992Z,18.8
2019-02-24T00:08:38.071Z,18.8
2019-02-24T00:11:43.977Z,18.8
2019-02-24T00:14:50.049Z,18.8
2019-02-24T00:17:55.905Z,18.8
2019-02-24T00:21:04.884Z,18.8
2019-02-24T00:24:10.830Z,18.8
2019-02-24T00:27:16.812Z,18.8
2019-02-24T00:30:22.883Z,18.8
2019-02-24T00:33:28.836Z,18.8
2019-02-24T00:36:37.809Z,18.7
2019-02-24T00:39:43.677Z,18.7
2019-02-24T00:42:49.610Z,18.7
2019-02-24T00:45:55.509Z,18.7
2019-02-24T00:49:01.441Z,18.7
2019-02-24T00:52:07.396Z,18.7
2019-02-24T00:55:13.255Z,18.7
2019-02-24T00:58:19.269Z,18.7
2019-02-24T01:01:25.253Z,18.7
2019-02-24T01:04:31.191Z,18.7
2019-02-24T01:07:37.215Z,18.6
2019-02-24T01:10:43.167Z,18.6
2019-02-24T01:13:49.117Z,18.7
2019-02-24T01:16:56.943Z,18.7
2019-02-24T01:20:02.938Z,18.7
2019-02-24T01:23:08.854Z,18.6
2019-02-24T01:26:14.941Z,18.6
2019-02-24T01:29:20.914Z,18.6
2019-02-24T01:32:26.893Z,18.6
2019-02-24T01:35:32.798Z,18.6
2019-02-24T01:38:38.766Z,18.6
2019-02-24T01:41:44.682Z,18.6
2019-02-24T01:44:50.620Z,18.6
2019-02-24T01:47:56.594Z,18.6
2019-02-24T01:51:02.548Z,18.6
2019-02-24T01:54:08.500Z,18.6
2019-02-24T01:57:14.420Z,18.6
2019-02-24T02:00:20.456Z,18.5
2019-02-24T02:03:26.386Z,18.5
2019-02-24T02:06:32.347Z,18.5
2019-02-24T02:09:38.425Z,18.5
2019-02-24T02:12:44.316Z,18.5
2019-02-24T02:15:50.329Z,18.5
2019-02-24T02:18:56.326Z,18.5
2019-02-24T02:22:02.237Z,18.5
2019-02-24T02:25:08.144Z,18.5
2019-02-24T02:28:14.097Z,18.5
2019-02-24T02:31:20.045Z,18.5
2019-02-24T02:34:25.976Z,18.5
2019-02-24T02:37:31.952Z,18.5
2019-02-24T02:40:37.963Z,18.5
2019-02-24T02:43:44.053Z,18.5
2019-02-24T02:46:50.267Z,18.4
2019-02-24T02:49:56.218Z,18.5
2019-02-24T02:53:02.171Z,18.5
2019-02-24T02:56:08.381Z,18.5
2019-02-24T02:59:16.782Z,18.5
2019-02-24T03:02:24.526Z,18.4
2019-02-24T03:05:30.803Z,18.5
2019-02-24T03:08:36.758Z,18.4
2019-02-24T03:11:42.700Z,18.5
2019-02-24T03:14:48.737Z,18.4
2019-02-24T03:17:54.844Z,18.4
2019-02-24T03:21:00.801Z,18.4
2019-02-24T03:24:06.798Z,18.4
2019-02-24T03:27:12.738Z,18.4
2019-02-24T03:30:18.674Z,18.4
2019-02-24T03:33:24.677Z,18.4
2019-02-24T03:36:30.805Z,18.4
2019-02-24T03:39:36.778Z,18.4
2019-02-24T03:42:42.845Z,18.4
2019-02-24T03:45:48.725Z,18.3
2019-02-24T03:48:54.775Z,18.4
2019-02-24T03:52:00.883Z,18.3
2019-02-24T03:55:06.908Z,18.3
2019-02-24T03:58:12.777Z,18.3
2019-02-24T04:01:18.719Z,18.3
2019-02-24T04:04:24.656Z,18.3
2019-02-24T04:07:30.591Z,18.3
2019-02-24T04:10:36.622Z,18.3
2019-02-24T04:13:42.677Z,18.3
2019-02-24T04:16:48.837Z,18.3
2019-02-24T04:19:54.699Z,18.3
2019-02-24T04:23:01.022Z,18.3
2019-02-24T04:26:07.100Z,18.3
2019-02-24T04:29:12.981Z,18.3
2019-02-24T04:32:28.992Z,18.3
2019-02-24T04:35:34.855Z,18.3
2019-02-24T04:38:40.862Z,18.3
2019-02-24T04:41:46.925Z,18.3
2019-02-24T04:44:52.936Z,18.2
2019-02-24T04:47:58.989Z,18.3
2019-02-24T04:51:05.002Z,18.2
2019-02-24T04:54:10.953Z,18.2
2019-02-24T04:57:16.868Z,18.2
2019-02-24T05:00:23.000Z,18.2
2019-02-24T05:03:28.939Z,18.2
2019-02-24T05:06:34.922Z,18.2
2019-02-24T05:09:40.872Z,18.2
2019-02-24T05:12:46.899Z,18.2
2019-02-24T05:15:52.917Z,18.2
2019-02-24T05:18:58.969Z,18.2
2019-02-24T05:22:04.934Z,18.2
2019-02-24T05:25:10.969Z,18.2
2019-02-24T05:28:16.877Z,18.2
2019-02-24T05:31:22.968Z,18.2
2019-02-24T05:34:29.087Z,18.2
2019-02-24T05:37:35.092Z,18.2
2019-02-24T05:40:41.155Z,18.2
2019-02-24T05:43:47.070Z,18.2
2019-02-24T05:46:52.998Z,18.2
2019-02-24T05:49:58.886Z,18.2
2019-02-24T05:53:04.805Z,18.3
2019-02-24T05:56:10.758Z,18.3
2019-02-24T05:59:16.668Z,18.3
2019-02-24T06:02:22.691Z,18.3
2019-02-24T06:05:28.630Z,18.4
2019-02-24T06:08:34.554Z,18.4
2019-02-24T06:11:40.487Z,18.5
2019-02-24T06:14:46.429Z,18.5
2019-02-24T06:17:52.329Z,18.5
2019-02-24T06:20:58.455Z,18.6
2019-02-24T06:24:04.445Z,18.6
2019-02-24T06:27:10.457Z,18.6
2019-02-24T06:30:16.449Z,18.7
2019-02-24T06:33:22.476Z,18.7
2019-02-24T06:36:28.388Z,18.8
2019-02-24T06:39:34.319Z,18.8
2019-02-24T06:42:40.375Z,18.9
2019-02-24T06:45:46.268Z,18.9
2019-02-24T06:48:52.247Z,19
2019-02-24T06:51:58.085Z,19
2019-02-24T06:55:04.014Z,19
2019-02-24T06:58:09.966Z,19.1
2019-02-24T07:01:15.957Z,19.1
2019-02-24T07:04:21.823Z,19.1
2019-02-24T07:07:27.759Z,19.2
2019-02-24T07:10:33.680Z,19.2
2019-02-24T07:13:39.651Z,19.3
2019-02-24T07:16:45.619Z,19.3
2019-02-24T07:19:51.601Z,19.3
2019-02-24T07:22:57.538Z,19.3
2019-02-24T07:26:03.437Z,19.4
2019-02-24T07:29:09.398Z,19.4
2019-02-24T07:32:15.347Z,19.4
2019-02-24T07:35:21.268Z,19.4
2019-02-24T07:38:27.220Z,19.5
2019-02-24T07:41:33.232Z,19.5
2019-02-24T07:44:39.216Z,19.5
2019-02-24T07:47:45.065Z,19.5
2019-02-24T07:50:51.001Z,19.5
2019-02-24T07:53:57.005Z,19.6
2019-02-24T07:57:02.975Z,19.6
2019-02-24T08:00:08.807Z,19.6
2019-02-24T08:03:14.741Z,19.6
2019-02-24T08:06:20.710Z,19.6
2019-02-24T08:09:26.573Z,19.7
2019-02-24T08:12:32.578Z,19.7
2019-02-24T08:15:38.574Z,19.7
2019-02-24T08:18:49.398Z,19.7
2019-02-24T08:21:57.488Z,19.7
2019-02-24T08:25:03.491Z,19.7
2019-02-24T08:28:09.457Z,19.7
2019-02-24T08:31:15.406Z,19.8
2019-02-24T08:34:21.363Z,19.8
2019-02-24T08:37:27.273Z,19.8
2019-02-24T08:40:33.202Z,19.8
2019-02-24T08:43:39.150Z,19.8
2019-02-24T08:46:45.147Z,19.8
2019-02-24T08:49:51.135Z,19.8
2019-02-24T08:52:57.059Z,19.8
2019-02-24T08:56:02.978Z,19.8
2019-02-24T08:59:08.896Z,19.8
2019-02-24T09:02:14.824Z,19.8
2019-02-24T09:05:20.835Z,19.8
2019-02-24T09:08:26.768Z,19.8
2019-02-24T09:11:32.692Z,19.8
2019-02-24T09:14:38.779Z,19.8
2019-02-24T09:17:44.662Z,19.8
2019-02-24T09:20:53.235Z,19.8
2019-02-24T09:23:59.377Z,19.8
2019-02-24T09:27:05.292Z,19.8
2019-02-24T09:30:11.221Z,19.8
2019-02-24T09:33:17.183Z,19.7
2019-02-24T09:36:23.181Z,19.7
2019-02-24T09:39:29.127Z,19.7
2019-02-24T09:42:37.954Z,19.7
2019-02-24T09:45:43.876Z,19.7
2019-02-24T09:48:49.839Z,19.7
2019-02-24T09:51:55.892Z,19.7
2019-02-24T09:55:01.798Z,19.7
2019-02-24T09:58:07.799Z,19.7
2019-02-24T10:01:13.777Z,19.7
2019-02-24T10:04:19.725Z,19.7
2019-02-24T10:07:25.864Z,19.7
2019-02-24T10:10:31.798Z,19.7
2019-02-24T10:13:37.733Z,19.7
2019-02-24T10:16:43.614Z,19.7
2019-02-24T10:19:52.190Z,19.7
2019-02-24T10:22:58.187Z,19.7
2019-02-24T10:26:04.050Z,19.6
2019-02-24T10:29:09.987Z,19.6
2019-02-24T10:32:15.998Z,19.6
2019-02-24T10:35:24.786Z,19.6
2019-02-24T10:38:30.732Z,19.6
2019-02-24T10:41:36.676Z,19.6
2019-02-24T10:44:42.755Z,19.6
2019-02-24T10:47:48.688Z,19.6
2019-02-24T10:50:54.706Z,19.6
2019-02-24T10:54:00.648Z,19.6
2019-02-24T10:57:08.587Z,19.6
2019-02-24T11:00:18.696Z,19.6
2019-02-24T11:03:24.791Z,19.6
2019-02-24T11:06:30.716Z,19.6
2019-02-24T11:09:36.762Z,19.6
2019-02-24T11:12:42.725Z,19.6
2019-02-24T11:15:48.894Z,19.6
2019-02-24T11:18:54.860Z,19.6
2019-02-24T11:22:00.809Z,19.6
2019-02-24T11:25:06.721Z,19.6
2019-02-24T11:28:12.842Z,19.6
2019-02-24T11:31:18.821Z,19.6
2019-02-24T11:34:24.742Z,19.6
2019-02-24T11:37:32.381Z,19.6
2019-02-24T11:40:38.423Z,19.6
2019-02-24T11:43:44.421Z,19.6
2019-02-24T11:46:50.276Z,19.6
2019-02-24T11:49:56.398Z,19.6
2019-02-24T11:53:02.506Z,19.6
2019-02-24T11:56:08.563Z,19.6
2019-02-24T11:59:14.486Z,19.6
2019-02-24T12:02:20.496Z,19.7
2019-02-24T12:05:35.517Z,19.7
2019-02-24T12:08:41.460Z,19.7
2019-02-24T12:11:47.548Z,19.7
2019-02-24T12:14:53.443Z,19.7
2019-02-24T12:17:59.372Z,19.7
2019-02-24T12:21:05.313Z,19.7
2019-02-24T12:24:13.204Z,19.7
2019-02-24T12:27:19.179Z,19.7
2019-02-24T12:30:25.189Z,19.8
2019-02-24T12:33:31.098Z,19.8
2019-02-24T12:36:37.146Z,19.8
2019-02-24T12:39:43.227Z,19.8
2019-02-24T12:42:49.118Z,19.8
2019-02-24T12:45:57.001Z,19.8
2019-02-24T12:49:02.885Z,19.8
2019-02-24T12:52:08.833Z,19.8
2019-02-24T12:55:17.832Z,19.8
2019-02-24T12:58:23.854Z,19.8
2019-02-24T13:01:29.771Z,19.8
2019-02-24T13:04:35.756Z,19.8
2019-02-24T13:07:41.747Z,19.8
2019-02-24T13:10:50.806Z,19.8
2019-02-24T13:13:56.757Z,19.8
2019-02-24T13:17:03.695Z,19.8
2019-02-24T13:20:10.077Z,19.8
2019-02-24T13:23:16.323Z,19.8
2019-02-24T13:26:22.200Z,19.8
2019-02-24T13:29:28.176Z,19.8
2019-02-24T13:32:34.158Z,19.8
2019-02-24T13:35:40.721Z,19.8
2019-02-24T13:38:46.883Z,19.7
2019-02-24T13:41:52.916Z,19.7
2019-02-24T13:44:58.850Z,19.7
2019-02-24T13:48:04.789Z,19.7
2019-02-24T13:51:10.768Z,19.7
2019-02-24T13:54:16.800Z,19.7
2019-02-24T13:57:22.876Z,19.7
2019-02-24T14:00:28.775Z,19.7
2019-02-24T14:03:34.732Z,19.7
2019-02-24T14:06:40.595Z,19.6
2019-02-24T14:09:46.515Z,19.7
2019-02-24T14:12:52.574Z,19.7
2019-02-24T14:16:00.203Z,19.7
2019-02-24T14:19:06.179Z,19.8
2019-02-24T14:22:12.186Z,19.8
2019-02-24T14:25:18.104Z,19.8
2019-02-24T14:28:24.141Z,19.9
2019-02-24T14:31:30.016Z,19.9
2019-02-24T14:34:35.942Z,19.9
2019-02-24T14:37:41.885Z,20
2019-02-24T14:40:47.853Z,20
2019-02-24T14:43:53.800Z,20.1
2019-02-24T14:47:02.524Z,20.1
2019-02-24T14:50:08.491Z,20
2019-02-24T14:53:14.391Z,20
2019-02-24T14:56:20.308Z,20.1
2019-02-24T14:59:26.349Z,20.1
2019-02-24T15:02:32.453Z,20.1
2019-02-24T15:05:47.797Z,20.1
2019-02-24T15:08:53.757Z,20.1
2019-02-24T15:11:59.719Z,20.1
2019-02-24T15:15:05.722Z,20.1
2019-02-24T15:18:11.658Z,20.1
2019-02-24T15:21:17.647Z,20.1
2019-02-24T15:24:25.761Z,20.1
2019-02-24T15:27:31.734Z,20.1
2019-02-24T15:30:37.749Z,20.1
2019-02-24T15:33:43.708Z,20.1
2019-02-24T15:36:49.687Z,20.1
2019-02-24T15:39:55.664Z,20.1
2019-02-24T15:43:01.670Z,20.1
2019-02-24T15:46:07.686Z,20.1
2019-02-24T15:49:16.196Z,20.1
2019-02-24T15:52:22.131Z,20.1
2019-02-24T15:55:28.188Z,20.1
2019-02-24T15:58:34.248Z,20.1
2019-02-24T16:01:40.229Z,20.1
2019-02-24T16:04:46.150Z,20.1
2019-02-24T16:07:52.070Z,20.1
2019-02-24T16:10:58.180Z,20.1
2019-02-24T16:14:04.224Z,20
2019-02-24T16:17:10.152Z,20
2019-02-24T16:20:16.213Z,20
2019-02-24T16:23:22.201Z,20
2019-02-24T16:26:28.244Z,20
2019-02-24T16:29:34.241Z,20
2019-02-24T16:32:40.216Z,20
2019-02-24T16:35:46.295Z,20
2019-02-24T16:38:52.253Z,20
2019-02-24T16:41:58.227Z,20
2019-02-24T16:45:04.304Z,19.9
2019-02-24T16:48:10.228Z,19.9
2019-02-24T16:51:16.170Z,19.8
2019-02-24T16:54:22.144Z,19.8
2019-02-24T16:57:28.230Z,19.7
2019-02-24T17:00:34.240Z,19.7
2019-02-24T17:03:42.869Z,19.6
2019-02-24T17:06:51.814Z,19.6
2019-02-24T17:09:58.020Z,19.6
2019-02-24T17:13:04.032Z,19.6
2019-02-24T17:16:09.940Z,19.6
2019-02-24T17:19:15.899Z,19.5
2019-02-24T17:22:24.674Z,19.5
2019-02-24T17:25:30.744Z,19.5
2019-02-24T17:28:36.647Z,19.5
2019-02-24T17:31:42.587Z,19.5
2019-02-24T17:34:48.503Z,19.5
2019-02-24T17:37:55.637Z,19.4
2019-02-24T17:41:01.600Z,19.4
2019-02-24T17:44:07.568Z,19.4
2019-02-24T17:47:13.492Z,19.4
2019-02-24T17:50:19.441Z,19.4
2019-02-24T17:53:25.411Z,19.3
2019-02-24T17:56:31.434Z,19.3
2019-02-24T17:59:40.346Z,19.3
2019-02-24T18:02:46.681Z,19.3
2019-02-24T18:05:52.621Z,19.3
2019-02-24T18:08:58.578Z,19.3
2019-02-24T18:12:04.536Z,19.3
2019-02-24T18:15:10.479Z,19.3
2019-02-24T18:18:16.422Z,19.3
2019-02-24T18:21:22.425Z,19.2
2019-02-24T18:24:28.411Z,19.2
2019-02-24T18:27:34.294Z,19.2
2019-02-24T18:30:40.222Z,19.2
2019-02-24T18:33:48.453Z,19.2
2019-02-24T18:36:54.525Z,19.2
2019-02-24T18:40:00.449Z,19.2
2019-02-24T18:43:06.380Z,19.1
2019-02-24T18:46:12.299Z,19.1
2019-02-24T18:49:18.223Z,19.1
2019-02-24T18:52:26.383Z,19.1
2019-02-24T18:55:32.300Z,19.1
2019-02-24T18:58:38.341Z,19.1
2019-02-24T19:01:44.251Z,19.1
2019-02-24T19:04:50.235Z,19.1
2019-02-24T19:07:56.175Z,19.1
2019-02-24T19:11:02.089Z,19.1
2019-02-24T19:14:08.063Z,19.1
2019-02-24T19:17:14.038Z,19.1
2019-02-24T19:20:19.985Z,19.1
2019-02-24T19:23:26.030Z,19.1
2019-02-24T19:26:31.984Z,19.1
2019-02-24T19:29:37.948Z,19
2019-02-24T19:32:46.466Z,19
2019-02-24T19:35:52.491Z,19
2019-02-24T19:38:58.540Z,19
2019-02-24T19:42:04.395Z,19
2019-02-24T19:45:10.416Z,19
2019-02-24T19:48:16.414Z,19
2019-02-24T19:51:22.282Z,19
2019-02-24T19:54:28.267Z,19
2019-02-24T19:57:34.262Z,19
2019-02-24T20:00:40.252Z,19
2019-02-24T20:03:46.171Z,19
2019-02-24T20:06:54.161Z,19
2019-02-24T20:10:00.221Z,19
2019-02-24T20:13:06.308Z,19
2019-02-24T20:16:12.267Z,18.9
2019-02-24T20:19:18.219Z,18.9
2019-02-24T20:22:24.148Z,18.9
2019-02-24T20:25:30.185Z,18.9
2019-02-24T20:28:36.106Z,18.9
2019-02-24T20:31:43.702Z,18.9
2019-02-24T20:34:49.610Z,18.9
2019-02-24T20:37:55.544Z,18.9
2019-02-24T20:41:01.470Z,18.9
2019-02-24T20:44:07.497Z,18.9
2019-02-24T20:47:13.526Z,18.9
2019-02-24T20:50:21.983Z,18.9
2019-02-24T20:53:27.923Z,18.8
2019-02-24T20:56:33.849Z,18.8
2019-02-24T20:59:39.792Z,18.8
2019-02-24T21:02:45.840Z,18.8
2019-02-24T21:05:54.557Z,18.8
2019-02-24T21:09:00.476Z,18.8
2019-02-24T21:12:06.339Z,18.8
2019-02-24T21:15:12.368Z,18.7
2019-02-24T21:18:18.467Z,18.7
2019-02-24T21:21:24.321Z,18.7
2019-02-24T21:24:30.247Z,18.7
2019-02-24T21:27:36.247Z,18.7
2019-02-24T21:30:42.352Z,18.7
2019-02-24T21:33:48.271Z,18.7
2019-02-24T21:36:54.213Z,18.7
2019-02-24T21:40:00.256Z,18.7
2019-02-24T21:43:06.149Z,18.7
2019-02-24T21:46:12.217Z,18.7
2019-02-24T21:49:18.214Z,18.7
2019-02-24T21:52:24.127Z,18.7
2019-02-24T21:55:30.242Z,18.7
2019-02-24T21:58:36.294Z,18.6
2019-02-24T22:01:42.218Z,18.6
2019-02-24T22:04:48.176Z,18.6
2019-02-24T22:07:55.635Z,18.6
2019-02-24T22:11:01.799Z,18.6
2019-02-24T22:14:07.773Z,18.6
2019-02-24T22:17:13.653Z,18.6
2019-02-24T22:20:19.663Z,18.6
2019-02-24T22:23:28.003Z,18.5
2019-02-24T22:26:34.023Z,18.5
2019-02-24T22:29:42.754Z,18.5
2019-02-24T22:32:48.729Z,18.5
2019-02-24T22:35:54.687Z,18.5
2019-02-24T22:39:00.576Z,18.5
2019-02-24T22:42:06.544Z,18.5
2019-02-24T22:45:12.480Z,18.5
2019-02-24T22:48:21.054Z,18.5
2019-02-24T22:51:27.041Z,18.5
2019-02-24T22:54:33.026Z,18.4
2019-02-24T22:57:38.917Z,18.4
2019-02-24T23:00:44.908Z,18.4
2019-02-24T23:03:50.935Z,18.4
2019-02-24T23:06:56.985Z,18.4
2019-02-24T23:10:02.909Z,18.4
2019-02-24T23:13:08.861Z,18.4
2019-02-24T23:16:14.871Z,18.4
2019-02-24T23:19:20.825Z,18.4
2019-02-24T23:22:26.701Z,18.3
2019-02-24T23:25:32.705Z,18.3
2019-02-24T23:28:38.694Z,18.3
2019-02-24T23:31:44.637Z,18.3
2019-02-24T23:34:50.524Z,18.3
2019-02-24T23:37:56.553Z,18.3
2019-02-24T23:41:02.449Z,18.3
2019-02-24T23:44:08.414Z,18.3
2019-02-24T23:47:14.363Z,18.3
2019-02-24T23:50:20.396Z,18.3
2019-02-24T23:53:26.290Z,18.3
2019-02-24T23:56:32.224Z,18.2
2019-02-24T23:59:38.138Z,18.2
